sensor_id;sensor_type;location;lat;lon;timestamp;P1;durP1;ratioP1;P2;durP2;ratioP2
49710;SDS011;35602;44.534;18.696;2023-05-19T00:01:24;157.98;;;140.68;;
49710;SDS011;35602;44.534;18.696;2023-05-19T00:06:26;153.75;;;137.02;;
49710;SDS011;35602;44.534;18.696;2023-05-19T00:11:30;144.25;;;128.35;;
49710;SDS011;35602;44.534;18.696;2023-05-19T00:16:32;144.10;;;128.55;;
49710;SDS011;35602;44.534;18.696;2023-05-19T00:21:35;151.70;;;135.32;;
49710;SDS011;35602;44.534;18.696;2023-05-19T00:26:39;149.23;;;133.02;;
49710;SDS011;35602;44.534;18.696;2023-05-19T00:31:40;144.23;;;128.35;;
49710;SDS011;35602;44.534;18.696;2023-05-19T00:36:41;145.95;;;130.20;;
49710;SDS011;35602;44.534;18.696;2023-05-19T00:41:41;136.10;;;121.13;;
49710;SDS011;35602;44.534;18.696;2023-05-19T00:46:42;142.93;;;127.50;;
49710;SDS011;35602;44.534;18.696;2023-05-19T00:51:43;138.60;;;123.55;;
49710;SDS011;35602;44.534;18.696;2023-05-19T00:56:45;132.93;;;118.15;;
49710;SDS011;35602;44.534;18.696;2023-05-19T01:01:47;130.60;;;116.32;;
49710;SDS011;35602;44.534;18.696;2023-05-19T01:06:48;136.20;;;121.37;;
49710;SDS011;35602;44.534;18.696;2023-05-19T01:11:53;130.05;;;115.43;;
49710;SDS011;35602;44.534;18.696;2023-05-19T01:17:06;128.27;;;114.07;;
49710;SDS011;35602;44.534;18.696;2023-05-19T01:29:26;130.10;;;116.28;;
49710;SDS011;35602;44.534;18.696;2023-05-19T01:34:41;128.32;;;114.60;;
49710;SDS011;35602;44.534;18.696;2023-05-19T01:39:43;126.55;;;113.07;;
49710;SDS011;35602;44.534;18.696;2023-05-19T01:44:45;124.60;;;111.20;;
49710;SDS011;35602;44.534;18.696;2023-05-19T01:49:46;118.90;;;106.10;;
49710;SDS011;35602;44.534;18.696;2023-05-19T01:54:47;113.45;;;100.97;;
49710;SDS011;35602;44.534;18.696;2023-05-19T01:59:54;117.62;;;104.93;;
49710;SDS011;35602;44.534;18.696;2023-05-19T02:05:20;117.55;;;105.00;;
49710;SDS011;35602;44.534;18.696;2023-05-19T02:10:49;114.45;;;102.38;;
49710;SDS011;35602;44.534;18.696;2023-05-19T02:15:57;120.05;;;107.10;;
49710;SDS011;35602;44.534;18.696;2023-05-19T02:21:02;112.80;;;100.70;;
49710;SDS011;35602;44.534;18.696;2023-05-19T02:26:03;116.90;;;104.53;;
49710;SDS011;35602;44.534;18.696;2023-05-19T02:31:05;109.63;;;97.78;;
49710;SDS011;35602;44.534;18.696;2023-05-19T02:36:08;113.93;;;101.78;;
49710;SDS011;35602;44.534;18.696;2023-05-19T02:41:09;101.55;;;90.55;;
49710;SDS011;35602;44.534;18.696;2023-05-19T02:46:09;105.70;;;94.37;;
49710;SDS011;35602;44.534;18.696;2023-05-19T02:51:10;104.45;;;93.07;;
49710;SDS011;35602;44.534;18.696;2023-05-19T02:56:11;103.97;;;92.78;;
49710;SDS011;35602;44.534;18.696;2023-05-19T03:01:12;105.00;;;93.75;;
49710;SDS011;35602;44.534;18.696;2023-05-19T03:06:13;104.43;;;93.28;;
49710;SDS011;35602;44.534;18.696;2023-05-19T03:11:14;95.65;;;85.43;;
49710;SDS011;35602;44.534;18.696;2023-05-19T03:16:15;97.65;;;87.15;;
49710;SDS011;35602;44.534;18.696;2023-05-19T03:21:16;100.30;;;89.72;;
49710;SDS011;35602;44.534;18.696;2023-05-19T03:26:17;100.93;;;90.12;;
49710;SDS011;35602;44.534;18.696;2023-05-19T03:31:18;96.82;;;86.70;;
49710;SDS011;35602;44.534;18.696;2023-05-19T03:36:20;98.07;;;87.75;;
49710;SDS011;35602;44.534;18.696;2023-05-19T03:41:21;95.57;;;85.45;;
49710;SDS011;35602;44.534;18.696;2023-05-19T03:46:22;89.72;;;80.12;;
49710;SDS011;35602;44.534;18.696;2023-05-19T03:51:23;93.35;;;83.47;;
49710;SDS011;35602;44.534;18.696;2023-05-19T03:56:24;90.03;;;80.30;;
49710;SDS011;35602;44.534;18.696;2023-05-19T04:01:26;91.10;;;81.40;;
49710;SDS011;35602;44.534;18.696;2023-05-19T04:06:27;90.35;;;80.65;;
49710;SDS011;35602;44.534;18.696;2023-05-19T04:11:28;90.30;;;80.70;;
49710;SDS011;35602;44.534;18.696;2023-05-19T04:16:29;89.85;;;80.38;;
49710;SDS011;35602;44.534;18.696;2023-05-19T04:21:30;84.75;;;75.68;;
49710;SDS011;35602;44.534;18.696;2023-05-19T04:26:31;84.30;;;75.18;;
49710;SDS011;35602;44.534;18.696;2023-05-19T04:31:33;81.22;;;72.68;;
49710;SDS011;35602;44.534;18.696;2023-05-19T04:36:35;82.10;;;73.30;;
49710;SDS011;35602;44.534;18.696;2023-05-19T04:41:36;80.87;;;72.30;;
49710;SDS011;35602;44.534;18.696;2023-05-19T04:46:42;79.47;;;70.97;;
49710;SDS011;35602;44.534;18.696;2023-05-19T04:51:44;81.90;;;72.90;;
49710;SDS011;35602;44.534;18.696;2023-05-19T04:56:45;77.35;;;69.25;;
49710;SDS011;35602;44.534;18.696;2023-05-19T05:01:45;78.90;;;70.45;;
49710;SDS011;35602;44.534;18.696;2023-05-19T05:06:46;75.53;;;67.57;;
49710;SDS011;35602;44.534;18.696;2023-05-19T05:11:48;76.80;;;68.72;;
49710;SDS011;35602;44.534;18.696;2023-05-19T05:16:50;77.32;;;69.32;;
49710;SDS011;35602;44.534;18.696;2023-05-19T05:21:52;75.12;;;67.25;;
49710;SDS011;35602;44.534;18.696;2023-05-19T05:26:53;74.70;;;66.80;;
49710;SDS011;35602;44.534;18.696;2023-05-19T05:31:54;71.18;;;63.53;;
49710;SDS011;35602;44.534;18.696;2023-05-19T05:36:55;73.57;;;65.87;;
49710;SDS011;35602;44.534;18.696;2023-05-19T05:41:56;68.75;;;61.45;;
49710;SDS011;35602;44.534;18.696;2023-05-19T05:46:57;69.87;;;62.42;;
49710;SDS011;35602;44.534;18.696;2023-05-19T05:51:58;69.50;;;62.00;;
49710;SDS011;35602;44.534;18.696;2023-05-19T05:57:00;67.20;;;59.97;;
49710;SDS011;35602;44.534;18.696;2023-05-19T06:02:02;64.97;;;58.03;;
49710;SDS011;35602;44.534;18.696;2023-05-19T06:07:03;66.80;;;59.60;;
49710;SDS011;35602;44.534;18.696;2023-05-19T06:12:05;64.47;;;57.55;;
49710;SDS011;35602;44.534;18.696;2023-05-19T06:17:06;63.90;;;57.13;;
49710;SDS011;35602;44.534;18.696;2023-05-19T06:22:07;61.03;;;54.53;;
49710;SDS011;35602;44.534;18.696;2023-05-19T06:27:07;63.08;;;56.28;;
49710;SDS011;35602;44.534;18.696;2023-05-19T06:32:08;63.90;;;56.97;;
49710;SDS011;35602;44.534;18.696;2023-05-19T06:37:09;62.90;;;56.20;;
49710;SDS011;35602;44.534;18.696;2023-05-19T06:42:10;62.70;;;55.83;;
49710;SDS011;35602;44.534;18.696;2023-05-19T06:47:11;62.25;;;55.55;;
49710;SDS011;35602;44.534;18.696;2023-05-19T06:52:12;60.90;;;54.35;;
49710;SDS011;35602;44.534;18.696;2023-05-19T06:57:12;59.20;;;52.90;;
49710;SDS011;35602;44.534;18.696;2023-05-19T07:02:13;59.20;;;52.80;;
49710;SDS011;35602;44.534;18.696;2023-05-19T07:07:14;61.10;;;54.53;;
49710;SDS011;35602;44.534;18.696;2023-05-19T07:12:15;56.20;;;49.92;;
49710;SDS011;35602;44.534;18.696;2023-05-19T07:17:16;61.15;;;51.28;;
49710;SDS011;35602;44.534;18.696;2023-05-19T07:22:16;54.63;;;48.35;;
49710;SDS011;35602;44.534;18.696;2023-05-19T07:27:17;53.70;;;47.72;;
49710;SDS011;35602;44.534;18.696;2023-05-19T07:32:18;58.50;;;45.58;;
49710;SDS011;35602;44.534;18.696;2023-05-19T07:37:19;56.70;;;45.42;;
49710;SDS011;35602;44.534;18.696;2023-05-19T07:42:20;51.63;;;43.30;;
49710;SDS011;35602;44.534;18.696;2023-05-19T07:47:21;49.97;;;41.65;;
49710;SDS011;35602;44.534;18.696;2023-05-19T07:52:22;50.90;;;43.53;;
49710;SDS011;35602;44.534;18.696;2023-05-19T07:57:23;46.25;;;40.33;;
49710;SDS011;35602;44.534;18.696;2023-05-19T08:02:23;50.15;;;41.10;;
49710;SDS011;35602;44.534;18.696;2023-05-19T08:07:24;49.67;;;42.25;;
49710;SDS011;35602;44.534;18.696;2023-05-19T08:12:25;47.78;;;41.30;;
49710;SDS011;35602;44.534;18.696;2023-05-19T08:17:26;49.80;;;41.63;;
49710;SDS011;35602;44.534;18.696;2023-05-19T08:22:27;58.28;;;44.35;;
49710;SDS011;35602;44.534;18.696;2023-05-19T08:27:28;54.00;;;44.83;;
49710;SDS011;35602;44.534;18.696;2023-05-19T08:45:19;55.63;;;43.58;;
49710;SDS011;35602;44.534;18.696;2023-05-19T08:50:22;55.60;;;43.92;;
49710;SDS011;35602;44.534;18.696;2023-05-19T08:55:35;64.32;;;47.90;;
49710;SDS011;35602;44.534;18.696;2023-05-19T09:00:52;63.13;;;47.33;;
49710;SDS011;35602;44.534;18.696;2023-05-19T09:05:54;60.28;;;46.53;;
49710;SDS011;35602;44.534;18.696;2023-05-19T09:10:55;62.28;;;46.53;;
49710;SDS011;35602;44.534;18.696;2023-05-19T09:15:56;70.10;;;49.65;;
49710;SDS011;35602;44.534;18.696;2023-05-19T09:20:57;66.65;;;48.87;;
49710;SDS011;35602;44.534;18.696;2023-05-19T09:26:00;68.32;;;50.28;;
49710;SDS011;35602;44.534;18.696;2023-05-19T09:31:08;67.12;;;49.22;;
49710;SDS011;35602;44.534;18.696;2023-05-19T09:36:10;61.75;;;47.45;;
49710;SDS011;35602;44.534;18.696;2023-05-19T09:41:13;63.50;;;48.72;;
49710;SDS011;35602;44.534;18.696;2023-05-19T09:46:14;68.57;;;52.65;;
49710;SDS011;35602;44.534;18.696;2023-05-19T09:51:14;73.15;;;53.85;;
49710;SDS011;35602;44.534;18.696;2023-05-19T09:56:20;72.25;;;56.25;;
49710;SDS011;35602;44.534;18.696;2023-05-19T10:01:24;75.97;;;56.78;;
49710;SDS011;35602;44.534;18.696;2023-05-19T10:06:25;82.22;;;59.35;;
49710;SDS011;35602;44.534;18.696;2023-05-19T10:11:26;75.03;;;57.10;;
49710;SDS011;35602;44.534;18.696;2023-05-19T10:16:29;77.03;;;59.08;;
49710;SDS011;35602;44.534;18.696;2023-05-19T10:21:31;79.93;;;60.17;;
49710;SDS011;35602;44.534;18.696;2023-05-19T10:26:33;79.95;;;62.50;;
49710;SDS011;35602;44.534;18.696;2023-05-19T10:31:35;85.90;;;63.83;;
49710;SDS011;35602;44.534;18.696;2023-05-19T10:36:46;87.95;;;64.43;;
49710;SDS011;35602;44.534;18.696;2023-05-19T10:42:08;86.72;;;64.12;;
49710;SDS011;35602;44.534;18.696;2023-05-19T10:47:36;84.78;;;64.47;;
49710;SDS011;35602;44.534;18.696;2023-05-19T10:52:39;86.28;;;66.35;;
49710;SDS011;35602;44.534;18.696;2023-05-19T10:57:51;95.30;;;68.62;;
49710;SDS011;35602;44.534;18.696;2023-05-19T11:03:29;94.82;;;69.72;;
49710;SDS011;35602;44.534;18.696;2023-05-19T11:14:39;93.97;;;65.18;;
49710;SDS011;35602;44.534;18.696;2023-05-19T11:19:50;94.03;;;66.45;;
49710;SDS011;35602;44.534;18.696;2023-05-19T11:24:53;89.70;;;65.68;;
49710;SDS011;35602;44.534;18.696;2023-05-19T11:29:55;102.60;;;72.32;;
49710;SDS011;35602;44.534;18.696;2023-05-19T11:35:05;95.55;;;73.25;;
49710;SDS011;35602;44.534;18.696;2023-05-19T11:40:10;101.95;;;74.45;;
49710;SDS011;35602;44.534;18.696;2023-05-19T11:45:14;99.25;;;73.47;;
49710;SDS011;35602;44.534;18.696;2023-05-19T11:50:15;102.93;;;73.90;;
49710;SDS011;35602;44.534;18.696;2023-05-19T11:55:23;108.40;;;79.25;;
49710;SDS011;35602;44.534;18.696;2023-05-19T12:00:24;104.35;;;76.40;;
49710;SDS011;35602;44.534;18.696;2023-05-19T12:05:26;99.72;;;75.90;;
49710;SDS011;35602;44.534;18.696;2023-05-19T12:10:29;99.87;;;76.18;;
49710;SDS011;35602;44.534;18.696;2023-05-19T12:15:32;97.15;;;73.15;;
49710;SDS011;35602;44.534;18.696;2023-05-19T12:20:33;101.32;;;70.93;;
49710;SDS011;35602;44.534;18.696;2023-05-19T12:25:35;107.85;;;74.10;;
49710;SDS011;35602;44.534;18.696;2023-05-19T12:30:37;101.68;;;69.00;;
49710;SDS011;35602;44.534;18.696;2023-05-19T12:35:38;106.68;;;70.50;;
49710;SDS011;35602;44.534;18.696;2023-05-19T12:40:39;105.93;;;70.70;;
49710;SDS011;35602;44.534;18.696;2023-05-19T12:45:39;104.18;;;69.00;;
49710;SDS011;35602;44.534;18.696;2023-05-19T12:50:41;107.47;;;66.62;;
49710;SDS011;35602;44.534;18.696;2023-05-19T12:55:46;110.82;;;70.53;;
49710;SDS011;35602;44.534;18.696;2023-05-19T13:00:47;108.75;;;66.37;;
49710;SDS011;35602;44.534;18.696;2023-05-19T13:05:49;112.85;;;68.72;;
49710;SDS011;35602;44.534;18.696;2023-05-19T13:10:50;109.63;;;67.20;;
49710;SDS011;35602;44.534;18.696;2023-05-19T13:15:51;107.82;;;67.10;;
49710;SDS011;35602;44.534;18.696;2023-05-19T13:20:52;108.60;;;65.95;;
49710;SDS011;35602;44.534;18.696;2023-05-19T13:25:53;101.28;;;66.50;;
49710;SDS011;35602;44.534;18.696;2023-05-19T13:30:54;97.40;;;65.50;;
49710;SDS011;35602;44.534;18.696;2023-05-19T13:35:56;95.65;;;63.33;;
49710;SDS011;35602;44.534;18.696;2023-05-19T13:53:49;76.68;;;57.90;;
49710;SDS011;35602;44.534;18.696;2023-05-19T13:58:50;81.75;;;60.12;;
49710;SDS011;35602;44.534;18.696;2023-05-19T14:03:53;85.80;;;60.75;;
49710;SDS011;35602;44.534;18.696;2023-05-19T14:08:54;87.50;;;59.63;;
49710;SDS011;35602;44.534;18.696;2023-05-19T14:13:55;81.95;;;57.22;;
49710;SDS011;35602;44.534;18.696;2023-05-19T14:18:56;83.62;;;59.72;;
49710;SDS011;35602;44.534;18.696;2023-05-19T14:23:57;81.45;;;58.22;;
49710;SDS011;35602;44.534;18.696;2023-05-19T14:28:58;85.78;;;59.97;;
49710;SDS011;35602;44.534;18.696;2023-05-19T14:33:59;79.60;;;58.30;;
49710;SDS011;35602;44.534;18.696;2023-05-19T14:39:00;81.30;;;57.88;;
49710;SDS011;35602;44.534;18.696;2023-05-19T14:44:01;75.97;;;55.47;;
49710;SDS011;35602;44.534;18.696;2023-05-19T14:49:02;79.80;;;57.72;;
49710;SDS011;35602;44.534;18.696;2023-05-19T14:54:03;82.78;;;58.45;;
49710;SDS011;35602;44.534;18.696;2023-05-19T14:59:04;73.57;;;55.97;;
49710;SDS011;35602;44.534;18.696;2023-05-19T15:04:04;78.03;;;57.45;;
49710;SDS011;35602;44.534;18.696;2023-05-19T15:09:05;76.70;;;53.75;;
49710;SDS011;35602;44.534;18.696;2023-05-19T15:14:07;72.10;;;54.85;;
49710;SDS011;35602;44.534;18.696;2023-05-19T15:19:07;78.72;;;55.30;;
49710;SDS011;35602;44.534;18.696;2023-05-19T15:24:08;73.57;;;53.22;;
49710;SDS011;35602;44.534;18.696;2023-05-19T15:29:09;75.25;;;55.08;;
49710;SDS011;35602;44.534;18.696;2023-05-19T15:34:10;74.30;;;53.87;;
49710;SDS011;35602;44.534;18.696;2023-05-19T15:39:12;68.10;;;51.88;;
49710;SDS011;35602;44.534;18.696;2023-05-19T15:44:13;75.95;;;53.13;;
49710;SDS011;35602;44.534;18.696;2023-05-19T15:49:14;74.00;;;52.42;;
49710;SDS011;35602;44.534;18.696;2023-05-19T15:54:16;73.55;;;51.85;;
49710;SDS011;35602;44.534;18.696;2023-05-19T15:59:17;74.18;;;53.30;;
49710;SDS011;35602;44.534;18.696;2023-05-19T16:04:18;73.00;;;54.35;;
49710;SDS011;35602;44.534;18.696;2023-05-19T16:09:19;68.40;;;52.40;;
49710;SDS011;35602;44.534;18.696;2023-05-19T16:14:20;69.07;;;52.45;;
49710;SDS011;35602;44.534;18.696;2023-05-19T16:19:21;70.62;;;53.65;;
49710;SDS011;35602;44.534;18.696;2023-05-19T16:24:22;66.47;;;49.17;;
49710;SDS011;35602;44.534;18.696;2023-05-19T16:29:23;62.30;;;48.38;;
49710;SDS011;35602;44.534;18.696;2023-05-19T16:34:24;63.60;;;48.70;;
49710;SDS011;35602;44.534;18.696;2023-05-19T16:39:25;64.70;;;49.45;;
49710;SDS011;35602;44.534;18.696;2023-05-19T16:44:26;67.07;;;50.75;;
49710;SDS011;35602;44.534;18.696;2023-05-19T16:49:27;66.10;;;49.70;;
49710;SDS011;35602;44.534;18.696;2023-05-19T16:54:27;58.35;;;45.88;;
49710;SDS011;35602;44.534;18.696;2023-05-19T16:59:28;62.78;;;48.42;;
49710;SDS011;35602;44.534;18.696;2023-05-19T17:04:29;63.28;;;49.08;;
49710;SDS011;35602;44.534;18.696;2023-05-19T17:09:30;56.75;;;44.17;;
49710;SDS011;35602;44.534;18.696;2023-05-19T17:14:31;60.50;;;48.75;;
49710;SDS011;35602;44.534;18.696;2023-05-19T17:19:31;61.00;;;48.75;;
49710;SDS011;35602;44.534;18.696;2023-05-19T17:24:32;60.63;;;46.85;;
49710;SDS011;35602;44.534;18.696;2023-05-19T17:29:33;58.08;;;44.67;;
49710;SDS011;35602;44.534;18.696;2023-05-19T17:34:34;56.22;;;43.67;;
49710;SDS011;35602;44.534;18.696;2023-05-19T17:39:35;55.67;;;44.15;;
49710;SDS011;35602;44.534;18.696;2023-05-19T17:44:36;59.00;;;46.75;;
49710;SDS011;35602;44.534;18.696;2023-05-19T17:49:36;58.05;;;45.53;;
49710;SDS011;35602;44.534;18.696;2023-05-19T17:54:39;61.63;;;47.90;;
49710;SDS011;35602;44.534;18.696;2023-05-19T17:59:40;55.58;;;44.75;;
49710;SDS011;35602;44.534;18.696;2023-05-19T18:04:41;55.90;;;44.33;;
49710;SDS011;35602;44.534;18.696;2023-05-19T18:09:43;53.65;;;43.67;;
49710;SDS011;35602;44.534;18.696;2023-05-19T18:14:45;56.88;;;45.65;;
49710;SDS011;35602;44.534;18.696;2023-05-19T18:19:46;55.47;;;43.83;;
49710;SDS011;35602;44.534;18.696;2023-05-19T18:24:48;54.88;;;44.75;;
49710;SDS011;35602;44.534;18.696;2023-05-19T18:29:49;55.30;;;43.70;;
49710;SDS011;35602;44.534;18.696;2023-05-19T18:34:50;53.17;;;41.35;;
49710;SDS011;35602;44.534;18.696;2023-05-19T18:39:51;49.90;;;41.20;;
49710;SDS011;35602;44.534;18.696;2023-05-19T18:44:52;54.58;;;43.50;;
49710;SDS011;35602;44.534;18.696;2023-05-19T18:49:53;49.20;;;39.30;;
49710;SDS011;35602;44.534;18.696;2023-05-19T18:54:53;46.40;;;38.95;;
49710;SDS011;35602;44.534;18.696;2023-05-19T18:59:54;50.40;;;40.75;;
49710;SDS011;35602;44.534;18.696;2023-05-19T19:04:55;51.33;;;42.55;;
49710;SDS011;35602;44.534;18.696;2023-05-19T19:09:56;52.47;;;43.15;;
49710;SDS011;35602;44.534;18.696;2023-05-19T19:14:57;53.15;;;40.90;;
49710;SDS011;35602;44.534;18.696;2023-05-19T19:19:58;45.50;;;39.13;;
49710;SDS011;35602;44.534;18.696;2023-05-19T19:24:58;51.88;;;41.55;;
49710;SDS011;35602;44.534;18.696;2023-05-19T19:30:00;47.38;;;40.20;;
49710;SDS011;35602;44.534;18.696;2023-05-19T19:35:01;50.92;;;41.22;;
49710;SDS011;35602;44.534;18.696;2023-05-19T19:40:01;50.25;;;40.60;;
49710;SDS011;35602;44.534;18.696;2023-05-19T19:45:03;44.35;;;38.28;;
49710;SDS011;35602;44.534;18.696;2023-05-19T19:50:05;46.65;;;38.00;;
49710;SDS011;35602;44.534;18.696;2023-05-19T19:55:07;50.33;;;40.78;;
49710;SDS011;35602;44.534;18.696;2023-05-19T20:00:09;45.45;;;38.97;;
49710;SDS011;35602;44.534;18.696;2023-05-19T20:05:10;41.20;;;36.22;;
49710;SDS011;35602;44.534;18.696;2023-05-19T20:10:12;44.78;;;37.75;;
49710;SDS011;35602;44.534;18.696;2023-05-19T20:15:13;45.70;;;38.38;;
49710;SDS011;35602;44.534;18.696;2023-05-19T20:20:14;44.40;;;37.55;;
49710;SDS011;35602;44.534;18.696;2023-05-19T20:25:15;43.25;;;36.53;;
49710;SDS011;35602;44.534;18.696;2023-05-19T20:30:16;45.78;;;38.38;;
49710;SDS011;35602;44.534;18.696;2023-05-19T20:35:17;44.53;;;37.05;;
49710;SDS011;35602;44.534;18.696;2023-05-19T20:40:17;42.53;;;36.40;;
49710;SDS011;35602;44.534;18.696;2023-05-19T20:45:18;44.60;;;36.67;;
49710;SDS011;35602;44.534;18.696;2023-05-19T20:50:20;46.47;;;38.67;;
49710;SDS011;35602;44.534;18.696;2023-05-19T20:55:24;44.58;;;37.80;;
49710;SDS011;35602;44.534;18.696;2023-05-19T21:00:24;44.38;;;38.47;;
49710;SDS011;35602;44.534;18.696;2023-05-19T21:05:25;45.45;;;39.22;;
49710;SDS011;35602;44.534;18.696;2023-05-19T21:10:26;43.65;;;37.50;;
49710;SDS011;35602;44.534;18.696;2023-05-19T21:15:27;43.87;;;36.97;;
49710;SDS011;35602;44.534;18.696;2023-05-19T21:20:30;42.67;;;35.35;;
49710;SDS011;35602;44.534;18.696;2023-05-19T21:25:31;42.47;;;35.90;;
49710;SDS011;35602;44.534;18.696;2023-05-19T21:30:32;43.35;;;36.45;;
49710;SDS011;35602;44.534;18.696;2023-05-19T21:35:33;42.62;;;37.17;;
49710;SDS011;35602;44.534;18.696;2023-05-19T21:40:34;40.30;;;35.90;;
49710;SDS011;35602;44.534;18.696;2023-05-19T21:45:34;42.72;;;36.22;;
49710;SDS011;35602;44.534;18.696;2023-05-19T21:50:37;42.80;;;36.00;;
49710;SDS011;35602;44.534;18.696;2023-05-19T21:55:38;38.88;;;34.05;;
49710;SDS011;35602;44.534;18.696;2023-05-19T22:00:39;38.75;;;33.55;;
49710;SDS011;35602;44.534;18.696;2023-05-19T22:05:39;43.70;;;36.67;;
49710;SDS011;35602;44.534;18.696;2023-05-19T22:10:40;40.40;;;35.45;;
49710;SDS011;35602;44.534;18.696;2023-05-19T22:15:41;39.90;;;34.55;;
49710;SDS011;35602;44.534;18.696;2023-05-19T22:20:42;40.15;;;35.72;;
49710;SDS011;35602;44.534;18.696;2023-05-19T22:25:43;40.47;;;33.83;;
49710;SDS011;35602;44.534;18.696;2023-05-19T22:30:43;39.17;;;34.28;;
49710;SDS011;35602;44.534;18.696;2023-05-19T22:35:44;39.85;;;34.97;;
49710;SDS011;35602;44.534;18.696;2023-05-19T22:40:46;36.20;;;32.30;;
49710;SDS011;35602;44.534;18.696;2023-05-19T22:45:48;38.50;;;33.33;;
49710;SDS011;35602;44.534;18.696;2023-05-19T22:50:49;41.20;;;34.95;;
49710;SDS011;35602;44.534;18.696;2023-05-19T22:55:50;38.45;;;34.25;;
49710;SDS011;35602;44.534;18.696;2023-05-19T23:00:51;39.03;;;34.63;;
49710;SDS011;35602;44.534;18.696;2023-05-19T23:05:51;36.92;;;32.50;;
49710;SDS011;35602;44.534;18.696;2023-05-19T23:10:52;37.97;;;33.15;;
49710;SDS011;35602;44.534;18.696;2023-05-19T23:15:58;39.38;;;33.50;;
49710;SDS011;35602;44.534;18.696;2023-05-19T23:21:01;36.80;;;32.58;;
49710;SDS011;35602;44.534;18.696;2023-05-19T23:26:02;37.00;;;33.00;;
49710;SDS011;35602;44.534;18.696;2023-05-19T23:31:03;36.78;;;31.92;;
49710;SDS011;35602;44.534;18.696;2023-05-19T23:36:05;34.85;;;31.02;;
49710;SDS011;35602;44.534;18.696;2023-05-19T23:41:07;34.67;;;30.92;;
49710;SDS011;35602;44.534;18.696;2023-05-19T23:46:07;37.08;;;32.85;;
49710;SDS011;35602;44.534;18.696;2023-05-19T23:51:08;37.72;;;32.63;;
49710;SDS011;35602;44.534;18.696;2023-05-19T23:56:09;36.92;;;33.00;;
